PWSweather.com
Personal Weather Stations
Station Observations
UISISLE1
Newport, Isle ofWight, ISLE OF WIGHT PO30 2JX

NewportIsle ofWight, ISLE OF WIGHT PO30 2JX

Lat: 50.72, Lon: -1.27

Elevation: 45

Station Type: Davis Vantage Pro Plus

http://www.isleofwightweather.co.uk

High Low Average
Temperature 54.1°F12.3°C 41.0°F5.0°C 49.6°F9.8°C
Dew Point 49.5°F9.7°C 38.3°F3.5°C 46.2°F7.9°C
Winds 7.1 mph 11.4 kmh Calm Calm 3.0 mph WSW4.8 kmh WSW
Wind Gusts 16.0 mph25.7 kmh -- 5.0 mph8.0 kmh
Humidity 92% 83% 88%
Pressure 30.33 in1027.1 mb 30.25 in1024.4 mb -
Precipitation 0.00 in0.0 mm - -
Hour Temp Dew Point Humidity Winds Wind Gusts Pressure Precip Precip Rate Daily Precip Total
12:00 AM 41.0°F5.0°C 38.3°F3.5°C 90% 0.2 mph SW0.3 kmh SW 2.0 mph3.2 kmh 30.33 in1027.1 mb - 0.00 in0.0 mm 0.00 in0.0 mm
12:15 AM 41.1°F5.1°C 38.4°F3.6°C 90% 0.3 mph SW0.5 kmh SW 3.0 mph4.8 kmh 30.32 in1026.8 mb - 0.00 in0.0 mm 0.00 in0.0 mm
12:30 AM 41.4°F5.2°C 39.0°F3.9°C 91% 0.3 mph SW0.5 kmh SW 1.0 mph1.6 kmh 30.32 in1026.8 mb - 0.00 in0.0 mm 0.00 in0.0 mm
12:45 AM 41.7°F5.4°C 39.3°F4.1°C 91% Calm Calm -- 30.31 in1026.4 mb - 0.00 in0.0 mm 0.00 in0.0 mm
01:00 AM 41.9°F5.5°C 39.2°F4.0°C 90% Calm Calm -- 30.32 in1026.8 mb - 0.00 in0.0 mm 0.00 in0.0 mm
01:15 AM 41.9°F5.5°C 39.2°F4.0°C 90% Calm Calm -- 30.32 in1026.8 mb - 0.00 in0.0 mm 0.00 in0.0 mm
01:30 AM 41.9°F5.5°C 39.2°F4.0°C 90% 2.3 mph SW3.7 kmh SW 3.0 mph4.8 kmh 30.31 in1026.4 mb - 0.00 in0.0 mm 0.00 in0.0 mm
01:45 AM 42.2°F5.7°C 39.8°F4.3°C 91% 1.3 mph SW2.1 kmh SW 3.0 mph4.8 kmh 30.31 in1026.4 mb - 0.00 in0.0 mm 0.00 in0.0 mm
02:00 AM 42.6°F5.9°C 40.2°F4.6°C 91% 1.4 mph SW2.3 kmh SW 2.0 mph3.2 kmh 30.31 in1026.4 mb - 0.00 in0.0 mm 0.00 in0.0 mm
02:15 AM 42.9°F6.1°C 40.5°F4.7°C 91% 0.1 mph WSW0.2 kmh WSW 2.0 mph3.2 kmh 30.30 in1026.1 mb - 0.00 in0.0 mm 0.00 in0.0 mm
02:30 AM 43.2°F6.2°C 40.8°F4.9°C 91% 1.0 mph W1.6 kmh W 2.1 mph3.4 kmh 30.30 in1026.1 mb - 0.00 in0.0 mm 0.00 in0.0 mm
02:45 AM 43.5°F6.4°C 41.0°F5.0°C 91% 2.4 mph SW3.9 kmh SW 4.0 mph6.4 kmh 30.29 in1025.7 mb - 0.00 in0.0 mm 0.00 in0.0 mm
03:00 AM 43.8°F6.6°C 41.3°F5.2°C 91% 2.0 mph SW3.2 kmh SW 3.0 mph4.8 kmh 30.29 in1025.7 mb - 0.00 in0.0 mm 0.00 in0.0 mm
03:15 AM 43.9°F6.6°C 41.4°F5.2°C 91% 1.6 mph WSW2.6 kmh WSW 4.0 mph6.4 kmh 30.29 in1025.7 mb - 0.00 in0.0 mm 0.00 in0.0 mm
03:30 AM 43.8°F6.6°C 41.1°F5.1°C 90% 2.4 mph SW3.9 kmh SW 4.0 mph6.4 kmh 30.29 in1025.7 mb - 0.00 in0.0 mm 0.00 in0.0 mm
03:45 AM 43.7°F6.5°C 41.0°F5.0°C 90% 1.9 mph SW3.1 kmh SW 3.0 mph4.8 kmh 30.29 in1025.7 mb - 0.00 in0.0 mm 0.00 in0.0 mm
04:00 AM 43.6°F6.4°C 40.9°F4.9°C 90% 3.7 mph SW6.0 kmh SW 5.0 mph8.0 kmh 30.28 in1025.4 mb - 0.00 in0.0 mm 0.00 in0.0 mm
04:15 AM 43.6°F6.4°C 40.9°F4.9°C 90% 3.9 mph WSW6.3 kmh WSW 6.0 mph9.7 kmh 30.27 in1025.1 mb - 0.00 in0.0 mm 0.00 in0.0 mm
04:30 AM 43.7°F6.5°C 41.0°F5.0°C 90% 3.1 mph W5.0 kmh W 5.1 mph8.2 kmh 30.27 in1025.1 mb - 0.00 in0.0 mm 0.00 in0.0 mm
04:45 AM 43.9°F6.6°C 41.4°F5.2°C 91% 3.2 mph SW5.1 kmh SW 4.0 mph6.4 kmh 30.28 in1025.4 mb - 0.00 in0.0 mm 0.00 in0.0 mm
05:00 AM 44.2°F6.8°C 41.7°F5.4°C 91% 2.2 mph W3.5 kmh W 6.2 mph10.0 kmh 30.27 in1025.1 mb - 0.00 in0.0 mm 0.00 in0.0 mm
05:15 AM 44.9°F7.2°C 42.4°F5.8°C 91% 3.5 mph W5.6 kmh W 5.1 mph8.2 kmh 30.28 in1025.4 mb - 0.00 in0.0 mm 0.00 in0.0 mm
05:30 AM 45.6°F7.6°C 43.4°F6.3°C 92% 4.2 mph SW6.8 kmh SW 8.0 mph12.9 kmh 30.27 in1025.1 mb - 0.00 in0.0 mm 0.00 in0.0 mm
05:45 AM 46.1°F7.8°C 43.7°F6.5°C 91% 2.5 mph W4.0 kmh W 5.0 mph8.0 kmh 30.27 in1025.1 mb - 0.00 in0.0 mm 0.00 in0.0 mm
06:00 AM 46.7°F8.2°C 44.2°F6.8°C 91% 2.9 mph SW4.7 kmh SW 4.0 mph6.4 kmh 30.27 in1025.1 mb - 0.00 in0.0 mm 0.00 in0.0 mm
06:15 AM 47.1°F8.4°C 44.4°F6.9°C 90% 3.4 mph W5.5 kmh W 6.0 mph9.7 kmh 30.27 in1025.1 mb - 0.00 in0.0 mm 0.00 in0.0 mm
06:30 AM 47.7°F8.7°C 44.6°F7.0°C 89% 2.8 mph W4.5 kmh W 4.1 mph6.6 kmh 30.27 in1025.1 mb - 0.00 in0.0 mm 0.00 in0.0 mm
06:45 AM 48.2°F9.0°C 44.8°F7.1°C 88% 2.9 mph W4.7 kmh W 6.2 mph10.0 kmh 30.27 in1025.1 mb - 0.00 in0.0 mm 0.00 in0.0 mm
07:00 AM 48.7°F9.3°C 45.3°F7.4°C 88% 3.0 mph W4.8 kmh W 6.0 mph9.7 kmh 30.27 in1025.1 mb - 0.00 in0.0 mm 0.00 in0.0 mm
07:15 AM 49.0°F9.4°C 45.3°F7.4°C 87% 2.5 mph W4.0 kmh W 5.1 mph8.2 kmh 30.27 in1025.1 mb - 0.00 in0.0 mm 0.00 in0.0 mm
07:30 AM 49.3°F9.6°C 45.6°F7.6°C 87% 3.3 mph W5.3 kmh W 6.2 mph10.0 kmh 30.27 in1025.1 mb - 0.00 in0.0 mm 0.00 in0.0 mm
07:45 AM 49.5°F9.7°C 45.8°F7.7°C 87% 2.9 mph WNW4.7 kmh WNW 4.1 mph6.6 kmh 30.28 in1025.4 mb - 0.00 in0.0 mm 0.00 in0.0 mm
08:00 AM 49.7°F9.8°C 46.0°F7.8°C 87% 3.2 mph W5.1 kmh W 6.2 mph10.0 kmh 30.28 in1025.4 mb - 0.00 in0.0 mm 0.00 in0.0 mm
08:15 AM 50.0°F10.0°C 46.0°F7.8°C 86% 3.7 mph W6.0 kmh W 10.3 mph16.6 kmh 30.28 in1025.4 mb - 0.00 in0.0 mm 0.00 in0.0 mm
08:30 AM 50.4°F10.2°C 46.3°F7.9°C 86% 3.0 mph W4.8 kmh W 4.1 mph6.6 kmh 30.28 in1025.4 mb - 0.00 in0.0 mm 0.00 in0.0 mm
08:45 AM 50.7°F10.4°C 46.7°F8.2°C 86% 4.4 mph SW7.1 kmh SW 6.2 mph10.0 kmh 30.28 in1025.4 mb - 0.00 in0.0 mm 0.00 in0.0 mm
09:00 AM 51.0°F10.6°C 47.0°F8.3°C 86% 4.3 mph WNW6.9 kmh WNW 6.2 mph10.0 kmh 30.28 in1025.4 mb - 0.00 in0.0 mm 0.00 in0.0 mm
09:15 AM 51.3°F10.7°C 47.6°F8.7°C 87% 3.9 mph WSW6.3 kmh WSW 5.0 mph8.0 kmh 30.28 in1025.4 mb - 0.00 in0.0 mm 0.00 in0.0 mm
09:30 AM 51.4°F10.8°C 48.0°F8.9°C 88% 4.4 mph W7.1 kmh W 7.2 mph11.6 kmh 30.28 in1025.4 mb - 0.00 in0.0 mm 0.00 in0.0 mm
09:45 AM 51.5°F10.8°C 48.1°F8.9°C 88% 3.5 mph SW5.6 kmh SW 9.0 mph14.5 kmh 30.28 in1025.4 mb - 0.00 in0.0 mm 0.00 in0.0 mm
10:00 AM 51.7°F10.9°C 48.3°F9.1°C 88% 5.1 mph WSW8.2 kmh WSW 7.2 mph11.6 kmh 30.29 in1025.7 mb - 0.00 in0.0 mm 0.00 in0.0 mm
10:15 AM 51.8°F11.0°C 48.7°F9.3°C 89% 3.2 mph WNW5.1 kmh WNW 6.0 mph9.7 kmh 30.29 in1025.7 mb - 0.00 in0.0 mm 0.00 in0.0 mm
10:30 AM 51.9°F11.1°C 48.5°F9.2°C 88% 3.9 mph WSW6.3 kmh WSW 9.0 mph14.5 kmh 30.29 in1025.7 mb - 0.00 in0.0 mm 0.00 in0.0 mm
10:45 AM 52.0°F11.1°C 48.6°F9.2°C 88% 5.0 mph W8.0 kmh W 9.0 mph14.5 kmh 30.28 in1025.4 mb - 0.00 in0.0 mm 0.00 in0.0 mm
11:00 AM 52.3°F11.3°C 48.8°F9.3°C 88% 4.0 mph WSW6.4 kmh WSW 8.2 mph13.2 kmh 30.28 in1025.4 mb - 0.00 in0.0 mm 0.00 in0.0 mm
11:15 AM 52.6°F11.4°C 48.9°F9.4°C 87% 5.8 mph WSW9.3 kmh WSW 11.0 mph17.7 kmh 30.27 in1025.1 mb - 0.00 in0.0 mm 0.00 in0.0 mm
11:30 AM 52.9°F11.6°C 48.8°F9.3°C 86% 4.2 mph W6.8 kmh W 6.0 mph9.7 kmh 30.27 in1025.1 mb - 0.00 in0.0 mm 0.00 in0.0 mm
11:45 AM 53.1°F11.7°C 48.7°F9.3°C 85% 3.9 mph W6.3 kmh W 7.2 mph11.6 kmh 30.27 in1025.1 mb - 0.00 in0.0 mm 0.00 in0.0 mm
12:00 PM 53.4°F11.9°C 49.0°F9.4°C 85% 7.1 mph W11.4 kmh W 16.0 mph25.7 kmh 30.27 in1025.1 mb - 0.00 in0.0 mm 0.00 in0.0 mm
12:15 PM 53.6°F12.0°C 48.9°F9.4°C 84% 6.8 mph W10.9 kmh W 8.0 mph12.9 kmh 30.27 in1025.1 mb - 0.00 in0.0 mm 0.00 in0.0 mm
12:30 PM 53.9°F12.2°C 49.2°F9.6°C 84% 2.8 mph W4.5 kmh W 6.0 mph9.7 kmh 30.27 in1025.1 mb - 0.00 in0.0 mm 0.00 in0.0 mm
12:45 PM 54.1°F12.3°C 49.1°F9.5°C 83% 5.1 mph W8.2 kmh W 6.0 mph9.7 kmh 30.27 in1025.1 mb - 0.00 in0.0 mm 0.00 in0.0 mm
01:00 PM 54.0°F12.2°C 49.0°F9.4°C 83% 3.8 mph W6.1 kmh W 7.2 mph11.6 kmh 30.26 in1024.7 mb - 0.00 in0.0 mm 0.00 in0.0 mm
01:15 PM 54.0°F12.2°C 49.0°F9.4°C 83% 5.9 mph SW9.5 kmh SW 8.2 mph13.2 kmh 30.26 in1024.7 mb - 0.00 in0.0 mm 0.00 in0.0 mm
01:30 PM 54.0°F12.2°C 49.3°F9.6°C 84% 2.8 mph WNW4.5 kmh WNW 6.2 mph10.0 kmh 30.26 in1024.7 mb - 0.00 in0.0 mm 0.00 in0.0 mm
01:45 PM 54.1°F12.3°C 49.4°F9.7°C 84% 2.9 mph WSW4.7 kmh WSW 3.0 mph4.8 kmh 30.26 in1024.7 mb - 0.00 in0.0 mm 0.00 in0.0 mm
02:00 PM 54.1°F12.3°C 49.4°F9.7°C 84% 1.3 mph W2.1 kmh W 5.1 mph8.2 kmh 30.26 in1024.7 mb - 0.00 in0.0 mm 0.00 in0.0 mm
02:15 PM 54.1°F12.3°C 49.4°F9.7°C 84% 5.2 mph WSW8.4 kmh WSW 8.0 mph12.9 kmh 30.26 in1024.7 mb - 0.00 in0.0 mm 0.00 in0.0 mm
02:30 PM 54.0°F12.2°C 49.3°F9.6°C 84% 5.1 mph WNW8.2 kmh WNW 5.1 mph8.2 kmh 30.26 in1024.7 mb - 0.00 in0.0 mm 0.00 in0.0 mm
02:45 PM 54.0°F12.2°C 49.3°F9.6°C 84% 3.5 mph W5.6 kmh W 5.1 mph8.2 kmh 30.26 in1024.7 mb - 0.00 in0.0 mm 0.00 in0.0 mm
03:00 PM 53.9°F12.2°C 49.5°F9.7°C 85% 5.3 mph WNW8.5 kmh WNW 9.3 mph15.0 kmh 30.25 in1024.4 mb - 0.00 in0.0 mm 0.00 in0.0 mm
03:15 PM 53.8°F12.1°C 49.4°F9.7°C 85% 3.7 mph WNW6.0 kmh WNW 7.2 mph11.6 kmh 30.25 in1024.4 mb - 0.00 in0.0 mm 0.00 in0.0 mm
03:30 PM 53.6°F12.0°C 49.2°F9.6°C 85% 2.0 mph W3.2 kmh W 6.2 mph10.0 kmh 30.25 in1024.4 mb - 0.00 in0.0 mm 0.00 in0.0 mm
03:45 PM 53.4°F11.9°C 49.0°F9.4°C 85% 0.9 mph WNW1.4 kmh WNW 4.0 mph6.4 kmh 30.25 in1024.4 mb - 0.00 in0.0 mm 0.00 in0.0 mm
04:00 PM 53.2°F11.8°C 49.1°F9.5°C 86% 0.8 mph W1.3 kmh W 3.1 mph5.0 kmh 30.25 in1024.4 mb - 0.00 in0.0 mm 0.00 in0.0 mm
04:15 PM 53.0°F11.7°C 48.9°F9.4°C 86% 0.7 mph WSW1.1 kmh WSW 4.0 mph6.4 kmh 30.26 in1024.7 mb - 0.00 in0.0 mm 0.00 in0.0 mm
04:30 PM 52.8°F11.6°C 48.7°F9.3°C 86% 1.4 mph WNW2.3 kmh WNW 5.0 mph8.0 kmh 30.26 in1024.7 mb - 0.00 in0.0 mm 0.00 in0.0 mm
04:45 PM 52.6°F11.4°C 48.8°F9.3°C 87% 1.6 mph WSW2.6 kmh WSW 5.0 mph8.0 kmh 30.26 in1024.7 mb - 0.00 in0.0 mm 0.00 in0.0 mm
05:00 PM 52.5°F11.4°C 48.7°F9.3°C 87% 2.1 mph SW3.4 kmh SW 5.0 mph8.0 kmh 30.26 in1024.7 mb - 0.00 in0.0 mm 0.00 in0.0 mm
05:15 PM 52.4°F11.3°C 49.0°F9.4°C 88% 2.4 mph SW3.9 kmh SW 3.0 mph4.8 kmh 30.26 in1024.7 mb - 0.00 in0.0 mm 0.00 in0.0 mm
05:30 PM 52.3°F11.3°C 48.9°F9.4°C 88% 1.0 mph WSW1.6 kmh WSW 4.0 mph6.4 kmh 30.27 in1025.1 mb - 0.00 in0.0 mm 0.00 in0.0 mm
05:45 PM 52.3°F11.3°C 48.8°F9.3°C 88% 1.8 mph WSW2.9 kmh WSW 4.0 mph6.4 kmh 30.27 in1025.1 mb - 0.00 in0.0 mm 0.00 in0.0 mm
06:00 PM 52.2°F11.2°C 48.8°F9.3°C 88% 2.0 mph WSW3.2 kmh WSW 3.0 mph4.8 kmh 30.27 in1025.1 mb - 0.00 in0.0 mm 0.00 in0.0 mm
06:15 PM 52.2°F11.2°C 48.7°F9.3°C 88% 1.0 mph WSW1.6 kmh WSW 3.0 mph4.8 kmh 30.27 in1025.1 mb - 0.00 in0.0 mm 0.00 in0.0 mm
06:30 PM 52.1°F11.2°C 48.9°F9.4°C 89% 1.0 mph SW1.6 kmh SW 3.0 mph4.8 kmh 30.26 in1024.7 mb - 0.00 in0.0 mm 0.00 in0.0 mm
06:45 PM 51.9°F11.1°C 48.8°F9.3°C 89% 2.5 mph SW4.0 kmh SW 4.0 mph6.4 kmh 30.26 in1024.7 mb - 0.00 in0.0 mm 0.00 in0.0 mm
07:00 PM 51.7°F10.9°C 48.3°F9.1°C 88% 2.3 mph WSW3.7 kmh WSW 4.0 mph6.4 kmh 30.26 in1024.7 mb - 0.00 in0.0 mm 0.00 in0.0 mm
07:15 PM 51.5°F10.8°C 48.1°F8.9°C 88% 0.5 mph WSW0.8 kmh WSW 1.0 mph1.6 kmh 30.26 in1024.7 mb - 0.00 in0.0 mm 0.00 in0.0 mm
07:30 PM 51.3°F10.7°C 48.2°F9.0°C 89% 0.7 mph WSW1.1 kmh WSW 3.0 mph4.8 kmh 30.26 in1024.7 mb - 0.00 in0.0 mm 0.00 in0.0 mm
07:45 PM 51.1°F10.6°C 48.0°F8.9°C 89% 1.3 mph WSW2.1 kmh WSW 3.0 mph4.8 kmh 30.26 in1024.7 mb - 0.00 in0.0 mm 0.00 in0.0 mm
08:00 PM 51.0°F10.6°C 47.9°F8.8°C 89% 0.4 mph W0.6 kmh W 2.1 mph3.4 kmh 30.26 in1024.7 mb - 0.00 in0.0 mm 0.00 in0.0 mm
08:15 PM 51.0°F10.6°C 48.2°F9.0°C 90% 1.3 mph WSW2.1 kmh WSW 2.0 mph3.2 kmh 30.27 in1025.1 mb - 0.00 in0.0 mm 0.00 in0.0 mm
08:30 PM 51.0°F10.6°C 48.2°F9.0°C 90% 2.9 mph SW4.7 kmh SW 4.0 mph6.4 kmh 30.27 in1025.1 mb - 0.00 in0.0 mm 0.00 in0.0 mm
08:45 PM 51.1°F10.6°C 48.3°F9.1°C 90% 0.2 mph SSW0.3 kmh SSW -- 30.27 in1025.1 mb - 0.00 in0.0 mm 0.00 in0.0 mm
09:00 PM 51.1°F10.6°C 48.3°F9.1°C 90% 0.7 mph W1.1 kmh W 3.1 mph5.0 kmh 30.27 in1025.1 mb - 0.00 in0.0 mm 0.00 in0.0 mm
09:15 PM 51.1°F10.6°C 48.6°F9.2°C 91% 1.5 mph WNW2.4 kmh WNW 4.1 mph6.6 kmh 30.27 in1025.1 mb - 0.00 in0.0 mm 0.00 in0.0 mm
09:30 PM 51.3°F10.7°C 48.8°F9.3°C 91% 1.7 mph WSW2.7 kmh WSW 4.1 mph6.6 kmh 30.27 in1025.1 mb - 0.00 in0.0 mm 0.00 in0.0 mm
09:45 PM 51.4°F10.8°C 48.9°F9.4°C 91% 1.3 mph W2.1 kmh W 5.1 mph8.2 kmh 30.27 in1025.1 mb - 0.00 in0.0 mm 0.00 in0.0 mm
10:00 PM 51.5°F10.8°C 49.0°F9.4°C 91% 3.0 mph WSW4.8 kmh WSW 6.2 mph10.0 kmh 30.27 in1025.1 mb - 0.00 in0.0 mm 0.00 in0.0 mm
10:15 PM 51.6°F10.9°C 49.1°F9.5°C 91% 2.6 mph W4.2 kmh W 4.1 mph6.6 kmh 30.27 in1025.1 mb - 0.00 in0.0 mm 0.00 in0.0 mm
10:30 PM 51.6°F10.9°C 49.0°F9.4°C 91% 1.5 mph WSW2.4 kmh WSW 3.0 mph4.8 kmh 30.27 in1025.1 mb - 0.00 in0.0 mm 0.00 in0.0 mm
10:45 PM 51.4°F10.8°C 48.9°F9.4°C 91% 2.6 mph SW4.2 kmh SW 6.0 mph9.7 kmh 30.26 in1024.7 mb - 0.00 in0.0 mm 0.00 in0.0 mm
11:00 PM 51.1°F10.6°C 48.2°F9.0°C 90% 0.5 mph WSW0.8 kmh WSW 2.0 mph3.2 kmh 30.26 in1024.7 mb - 0.00 in0.0 mm 0.00 in0.0 mm
11:15 PM 50.6°F10.3°C 47.8°F8.8°C 90% Calm Calm -- 30.27 in1025.1 mb - 0.00 in0.0 mm 0.00 in0.0 mm
11:30 PM 50.0°F10.0°C 47.2°F8.4°C 90% Calm Calm -- 30.27 in1025.1 mb - 0.00 in0.0 mm 0.00 in0.0 mm
11:45 PM 49.4°F9.7°C 46.6°F8.1°C 90% Calm Calm -- 30.27 in1025.1 mb - 0.00 in0.0 mm 0.00 in0.0 mm